Home > Products > Valid Products > MTR

000
SAUS41 KOKX 300355
MTRMTP
METAR KMTP 300354Z AUTO 22007KT 02/M04 A3014 RMK AO1 SLP205
T00221039





000
SAUS41 KOKX 300352
MTRNYC
METAR KNYC 300351Z AUTO 10SM CLR 04/M11 A3014 RMK AO2 SLP197
T00441106 $





000
SAUS41 KOKX 300352
MTRNYC
METAR KNYC 300351Z AUTO 10SM CLR 04/M11 A3014 RMK AO2 SLP197
T00441106 $





000
SAUS41 KOKX 300256
MTRMTP
METAR KMTP 300254Z AUTO 22005KT 02/M04 A3014 RMK AO1 SLP205
T00221044 58013





000
SAUS41 KOKX 300252
MTRNYC
METAR KNYC 300251Z AUTO VRB05KT 10SM CLR 05/M12 A3016 RMK AO2 SLP204
T00501122 56005 $





000
SAUS41 KOKX 300155
MTRMTP
METAR KMTP 300154Z AUTO 22005KT 02/M05 A3016 RMK AO1 SLP213
T00221050





000
SAUS41 KOKX 300152
MTRNYC
METAR KNYC 300151Z AUTO 22007KT 180V250 10SM CLR 06/M13 A3016 RMK
AO2 SLP205 T00561128 $





000
SAUS41 KOKX 300152
MTRNYC
METAR KNYC 300151Z AUTO 22007KT 180V250 10SM CLR 06/M13 A3016 RMK
AO2 SLP205 T00561128 $





000
SAUS41 KOKX 300055
MTRMTP
METAR KMTP 300054Z AUTO 22004KT 02/M05 A3017 RMK AO1 SLP217
T00221050





000
SAUS41 KOKX 300055
MTRMTP
METAR KMTP 300054Z AUTO 22004KT 02/M05 A3017 RMK AO1 SLP217
T00221050





000
SAUS41 KOKX 300052
MTRNYC
METAR KNYC 300051Z AUTO 18003KT 10SM CLR 04/M08 A3016 RMK AO2 SLP206
T00441078 $





000
SAUS41 KOKX 300052
MTRNYC
METAR KNYC 300051Z AUTO 18003KT 10SM CLR 04/M08 A3016 RMK AO2 SLP206
T00441078 $





000
SAUS41 KOKX 292355
MTRMTP
METAR KMTP 292354Z AUTO 22004KT 03/M09 A3018 RMK AO1 SLP218
T00281089 10050 20028 53006





000
SAUS41 KOKX 292355
MTRMTP
METAR KMTP 292354Z AUTO 22004KT 03/M09 A3018 RMK AO1 SLP218
T00281089 10050 20028 53006





000
SAUS41 KOKX 292352
MTRNYC
METAR KNYC 292351Z AUTO 26005KT 10SM CLR 07/M17 A3017 RMK AO2 SLP210
T00721172 10078 20044 58004 $





000
SAUS41 KOKX 292352
MTRNYC
METAR KNYC 292351Z AUTO 26005KT 10SM CLR 07/M17 A3017 RMK AO2 SLP210
T00721172 10078 20044 58004 $





000
SAUS41 KOKX 292255
MTRMTP
METAR KMTP 292254Z AUTO 25006KT 04/M09 A3017 RMK AO1 SLP215
T00391094





000
SAUS41 KOKX 292255
MTRMTP
METAR KMTP 292254Z AUTO 25006KT 04/M09 A3017 RMK AO1 SLP215
T00391094





000
SAUS41 KOKX 292252
MTRNYC
METAR KNYC 292251Z AUTO VRB04KT 10SM CLR 07/M16 A3018 RMK AO2 SLP213
T00721156 $





000
SAUS41 KOKX 292252
MTRNYC
METAR KNYC 292251Z AUTO VRB04KT 10SM CLR 07/M16 A3018 RMK AO2 SLP213
T00721156 $





000
SAUS41 KOKX 292155
MTRMTP
METAR KMTP 292154Z AUTO 25005KT 04/M11 A3017 RMK AO1 SLP214
T00441106





000
SAUS41 KOKX 292152
MTRNYC
METAR KNYC 292151Z AUTO 31004KT 10SM CLR 08/M16 A3018 RMK AO2 SLP214
T00781161 $





000
SAUS41 KOKX 292055
MTRMTP
METAR KMTP 292054Z AUTO 27007KT 04/M11 A3016 RMK AO1 SLP212
T00441111 58017





000
SAUS41 KOKX 292053
MTRNYC
METAR KNYC 292051Z AUTO 28008KT 10SM CLR 07/M16 A3018 RMK AO2 SLP214
T00721161 56025 $





000
SAUS41 KOKX 292053
MTRNYC
METAR KNYC 292051Z AUTO 28008KT 10SM CLR 07/M16 A3018 RMK AO2 SLP214
T00721161 56025 $





000
SAUS41 KOKX 291955
MTRMTP
METAR KMTP 291954Z AUTO 26004KT 04/M11 A3017 RMK AO1 SLP217
T00441106





000
SAUS41 KOKX 291953
MTRNYC
METAR KNYC 291951Z AUTO 10SM CLR 07/M16 A3020 RMK AO2 SLP219
T00671161 $





000
SAUS41 KOKX 291855
MTRMTP
METAR KMTP 291854Z AUTO 26005KT 03/M12 A3020 RMK AO1 SLP225
T00331117





000
SAUS41 KOKX 291855
MTRMTP
METAR KMTP 291854Z AUTO 26005KT 03/M12 A3020 RMK AO1 SLP225
T00331117





000
SAUS41 KOKX 291853
MTRNYC
METAR KNYC 291851Z AUTO 30006KT 10SM CLR 07/M16 A3022 RMK AO2 SLP227
T00671156 $





000
SAUS41 KOKX 291853
MTRNYC
METAR KNYC 291851Z AUTO 30006KT 10SM CLR 07/M16 A3022 RMK AO2 SLP227
T00671156 $





000
SAUS41 KOKX 291755
MTRMTP
METAR KMTP 291754Z AUTO VRB03KT 03/M12 A3021 RMK AO1 SLP229
T00281117 10033 21022 58009





000
SAUS41 KOKX 291755
MTRMTP
METAR KMTP 291754Z AUTO VRB03KT 03/M12 A3021 RMK AO1 SLP229
T00281117 10033 21022 58009





000
SAUS41 KOKX 291753
MTRNYC
METAR KNYC 291751Z AUTO VRB03KT 10SM CLR 04/M17 A3026 RMK AO2 SLP240
T00441172 10056 21039 58015 $





000
SAUS41 KOKX 291753
MTRNYC
METAR KNYC 291751Z AUTO VRB03KT 10SM CLR 04/M17 A3026 RMK AO2 SLP240
T00441172 10056 21039 58015 $





000
SAUS41 KOKX 291655
MTRMTP
METAR KMTP 291654Z AUTO 34005KT 02/M10 A3022 RMK AO1 SLP234
T00221100





000
SAUS41 KOKX 291655
MTRMTP
METAR KMTP 291654Z AUTO 34005KT 02/M10 A3022 RMK AO1 SLP234
T00221100





000
SAUS41 KOKX 291652
MTRNYC
METAR KNYC 291651Z AUTO 31008G16KT 10SM CLR 04/M18 A3028 RMK AO2
SLP247 T00391178 $





000
SAUS41 KOKX 291652
MTRNYC
METAR KNYC 291651Z AUTO 31008G16KT 10SM CLR 04/M18 A3028 RMK AO2
SLP247 T00391178 $





000
SAUS41 KOKX 291555
MTRMTP
METAR KMTP 291554Z AUTO 36005KT 02/M08 A3023 RMK AO1 SLP235
T00171083





000
SAUS41 KOKX 291553
MTRNYC
METAR KNYC 291551Z AUTO VRB05KT 10SM CLR 03/M18 A3029 RMK AO2 SLP250
T00281183 $





000
SAUS41 KOKX 291553
MTRNYC
METAR KNYC 291551Z AUTO VRB05KT 10SM CLR 03/M18 A3029 RMK AO2 SLP250
T00281183 $





000
SAUS41 KOKX 291455
MTRMTP
METAR KMTP 291454Z AUTO 36008KT 00/M08 A3024 RMK AO1 SLP238
T00001083 51015





000
SAUS41 KOKX 291455
MTRMTP
METAR KMTP 291454Z AUTO 36008KT 00/M08 A3024 RMK AO1 SLP238
T00001083 51015





000
SAUS41 KOKX 291453
MTRNYC
METAR KNYC 291451Z AUTO VRB05KT 10SM CLR 01/M17 A3030 RMK AO2 SLP254
T00061172 51012 $





000
SAUS41 KOKX 291453
MTRNYC
METAR KNYC 291451Z AUTO VRB05KT 10SM CLR 01/M17 A3030 RMK AO2 SLP254
T00061172 51012 $





000
SAUS41 KOKX 291355
MTRMTP
METAR KMTP 291354Z AUTO 35009KT M01/M09 A3023 RMK AO1 SLP236
T10111094





000
SAUS41 KOKX 291355
MTRMTP
METAR KMTP 291354Z AUTO 35009KT M01/M09 A3023 RMK AO1 SLP236
T10111094





000
SAUS41 KOKX 291352
MTRNYC
METAR KNYC 291351Z AUTO VRB04KT 10SM CLR M01/M17 A3030 RMK AO2
SLP254 T10061167 $





000
SAUS41 KOKX 291255
MTRMTP
METAR KMTP 291254Z AUTO 35011G18KT M02/M11 A3021 RMK AO1 SLP229
T10171106





000
SAUS41 KOKX 291255
MTRMTP
METAR KMTP 291254Z AUTO 35011G18KT M02/M11 A3021 RMK AO1 SLP229
T10171106





000
SAUS41 KOKX 291252
MTRNYC
METAR KNYC 291251Z AUTO 30004KT 10SM FEW055 M03/M16 A3028 RMK AO2
SLP248 T10281156 $





000
SAUS41 KOKX 291252
MTRNYC
METAR KNYC 291251Z AUTO 30004KT 10SM FEW055 M03/M16 A3028 RMK AO2
SLP248 T10281156 $





000
SAUS41 KOKX 291155
MTRMTP
METAR KMTP 291154Z AUTO 36012G18KT M02/M11 A3019 RMK AO1 SLP223
70050 T10221106 11011 21022 53028





000
SAUS41 KOKX 291155
MTRMTP
METAR KMTP 291154Z AUTO 36012G18KT M02/M11 A3019 RMK AO1 SLP223
70050 T10221106 11011 21022 53028





000
SAUS41 KOKX 291152
MTRNYC
METAR KNYC 291151Z AUTO 31007G15KT 10SM OVC060 M03/M16 A3027 RMK AO2
SLP243 T10331156 11028 21039 53027 $





000
SAUS41 KOKX 291152
MTRNYC
METAR KNYC 291151Z AUTO 31007G15KT 10SM OVC060 M03/M16 A3027 RMK AO2
SLP243 T10331156 11028 21039 53027 $





000
SAUS41 KOKX 291055
MTRMTP
METAR KMTP 291054Z AUTO 36010G18KT M02/M11 A3016 RMK AO1 SLP213
T10221106





000
SAUS41 KOKX 291055
MTRMTP
METAR KMTP 291054Z AUTO 36010G18KT M02/M11 A3016 RMK AO1 SLP213
T10221106





000
SAUS41 KOKX 291053
MTRNYC
METAR KNYC 291051Z AUTO 31010KT 10SM OVC060 M04/M16 A3024 RMK AO2
SLP232 T10391161 $





000
SAUS41 KOKX 290955
MTRMTP
METAR KMTP 290954Z AUTO 36012G19KT M02/M10 A3013 RMK AO1 SLP203
T10221100





000
SAUS41 KOKX 290953
MTRNYC
METAR KNYC 290951Z AUTO VRB05KT 10SM OVC055 M03/M15 A3021 RMK AO2
SLP222 T10331150 $





000
SAUS41 KOKX 290855
MTRMTP
METAR KMTP 290854Z AUTO 35011KT M02/M09 A3011 RMK AO1 SLP195
T10221089 53015





000
SAUS41 KOKX 290855
MTRMTP
METAR KMTP 290854Z AUTO 35011KT M02/M09 A3011 RMK AO1 SLP195
T10221089 53015





000
SAUS41 KOKX 290853
MTRNYC
METAR KNYC 290851Z AUTO VRB04KT 10SM OVC060 M03/M13 A3019 RMK AO2
SLP215 T10331133 53012 $





000
SAUS41 KOKX 290853
MTRNYC
METAR KNYC 290851Z AUTO VRB04KT 10SM OVC060 M03/M13 A3019 RMK AO2
SLP215 T10331133 53012 $





000
SAUS41 KOKX 290755
MTRMTP
METAR KMTP 290754Z AUTO 35012G22KT M02/M08 A3009 RMK AO1 SLP188
T10221083





000
SAUS41 KOKX 290755
MTRMTP
METAR KMTP 290754Z AUTO 35012G22KT M02/M08 A3009 RMK AO1 SLP188
T10221083





000
SAUS41 KOKX 290752
MTRNYC
METAR KNYC 290751Z AUTO 31007KT 260V040 10SM BKN070 OVC090 M03/M14
A3017 RMK AO2 SLP208 T10331144 $





000
SAUS41 KOKX 290752
MTRNYC
METAR KNYC 290751Z AUTO 31007KT 260V040 10SM BKN070 OVC090 M03/M14
A3017 RMK AO2 SLP208 T10331144 $





000
SAUS41 KOKX 290655
MTRMTP
METAR KMTP 290654Z AUTO 35012G19KT M02/M05 A3008 RMK AO1 SLP185
T10171050





000
SAUS41 KOKX 290655
MTRMTP
METAR KMTP 290654Z AUTO 35012G19KT M02/M05 A3008 RMK AO1 SLP185
T10171050





000
SAUS41 KOKX 290652
MTRNYC
METAR KNYC 290651Z AUTO VRB06KT 10SM OVC060 M03/M13 A3016 RMK AO2
SLP206 T10281128 $





000
SAUS41 KOKX 290652
MTRNYC
METAR KNYC 290651Z AUTO VRB06KT 10SM OVC060 M03/M13 A3016 RMK AO2
SLP206 T10281128 $





000
SAUS41 KOKX 290555
MTRMTP
METAR KMTP 290554Z AUTO 35010G19KT M01/M03 A3006 RMK AO1 SLP180
60017 T10111028 10006 21011 51016





000
SAUS41 KOKX 290555
MTRMTP
METAR KMTP 290554Z AUTO 35010G19KT M01/M03 A3006 RMK AO1 SLP180
60017 T10111028 10006 21011 51016





000
SAUS41 KOKX 290553
MTRNYC
METAR KNYC 290551Z AUTO VRB05KT 10SM BKN055 BKN070 OVC085 M03/M11
A3015 RMK AO2 SLP203 T10331111 10006 21033 51012 $





000
SAUS41 KOKX 290553
MTRNYC
METAR KNYC 290551Z AUTO VRB05KT 10SM BKN055 BKN070 OVC085 M03/M11
A3015 RMK AO2 SLP203 T10331111 10006 21033 51012 $





000
SAUS41 KOKX 290455
MTRMTP
METAR KMTP 290454Z AUTO 34011G18KT M01/M02 A3005 RMK AO1 SLP176
P0002 T10061022 400391006





000
SAUS41 KOKX 290455
MTRMTP
METAR KMTP 290454Z AUTO 34011G18KT M01/M02 A3005 RMK AO1 SLP176
P0002 T10061022 400391006





000
SAUS41 KOKX 290453
MTRNYC
METAR KNYC 290451Z AUTO VRB05G15KT 8SM OVC045 M03/M09 A3015 RMK AO2
SLP202 T10331094 400441033 $





000
SAUS41 KOKX 290453
MTRNYC
METAR KNYC 290451Z AUTO VRB05G15KT 8SM OVC045 M03/M09 A3015 RMK AO2
SLP202 T10331094 400441033 $





000
SAUS41 KOKX 290357
MTRMTP
METAR KMTP 290354Z AUTO 33011KT 00/M02 A3003 RMK AO1 SLP169 P0002
T00001017





000
SAUS41 KOKX 290352
MTRNYC
METAR KNYC 290351Z AUTO 31009G17KT 5SM HZ FEW023 OVC041 M03/M08
A3014 RMK AO2 SLP198 T10281083 $





000
SAUS41 KOKX 290352
MTRNYC
METAR KNYC 290351Z AUTO 31009G17KT 5SM HZ FEW023 OVC041 M03/M08
A3014 RMK AO2 SLP198 T10281083 $





000
SAUS41 KOKX 290305
MTRMTP
METAR KMTP 290254Z AUTO 35011KT 01/M01 A3002 RMK AO1 SLP164 P0003
60013 T00061011 51027





000
SAUS41 KOKX 290305
MTRMTP
METAR KMTP 290254Z AUTO 35011KT 01/M01 A3002 RMK AO1 SLP164 P0003
60013 T00061011 51027





000
SAUS41 KOKX 290253
MTRNYC
METAR KNYC 290251Z AUTO 35006KT 10SM OVC050 M02/M10 A3012 RMK AO2
SLP191 T10171100 51032 $





000
SAUS41 KOKX 290253
MTRNYC
METAR KNYC 290251Z AUTO 35006KT 10SM OVC050 M02/M10 A3012 RMK AO2
SLP191 T10171100 51032 $





000
SAUS41 KOKX 290157
MTRMTP
METAR KMTP 290154Z AUTO 36007KT 01/M01 A3000 RMK AO1 SLP159 P0005
T00061006





000
SAUS41 KOKX 290157
MTRMTP
METAR KMTP 290154Z AUTO 36007KT 01/M01 A3000 RMK AO1 SLP159 P0005
T00061006





000
SAUS41 KOKX 290152
MTRNYC
METAR KNYC 290151Z AUTO VRB04G16KT 10SM FEW029 OVC048 M01/M09 A3009
RMK AO2 SLP183 T10111089 $





000
SAUS41 KOKX 290152
MTRNYC
METAR KNYC 290151Z AUTO VRB04G16KT 10SM FEW029 OVC048 M01/M09 A3009
RMK AO2 SLP183 T10111089 $





000
SAUS41 KOKX 290101
MTRMTP
METAR KMTP 290054Z AUTO 32008KT 01/M01 A2997 RMK AO1 SLP149 P0005
T00061006





000
SAUS41 KOKX 290101
MTRMTP
METAR KMTP 290054Z AUTO 32008KT 01/M01 A2997 RMK AO1 SLP149 P0005
T00061006





000
SAUS41 KOKX 290052
MTRNYC
METAR KNYC 290051Z AUTO 30009G18KT 10SM SCT029 OVC046 M01/M08 A3006
RMK AO2 SLP172 T10061078 $





000
SAUS41 KOKX 290052
MTRNYC
METAR KNYC 290051Z AUTO 30009G18KT 10SM SCT029 OVC046 M01/M08 A3006
RMK AO2 SLP172 T10061078 $





000
SAUS41 KOKX 282355
MTRMTP
METAR KMTP 282354Z AUTO 31005KT 01/00 A2994 RMK AO1 SLP137 P0005
60015 T00060000 10028 20006 53042





000
SAUS41 KOKX 282355
MTRMTP
METAR KMTP 282354Z AUTO 31005KT 01/00 A2994 RMK AO1 SLP137 P0005
60015 T00060000 10028 20006 53042





000
SAUS41 KOKX 282352
MTRNYC
METAR KNYC 282351Z AUTO VRB05G16KT 10SM OVC050 01/M08 A3002 RMK AO2
SLP159 T00061078 10044 20006 53046 $





000
SAUS41 KOKX 282352
MTRNYC
METAR KNYC 282351Z AUTO VRB05G16KT 10SM OVC050 01/M08 A3002 RMK AO2
SLP159 T00061078 10044 20006 53046 $





000
SAUS41 KOKX 282256 COR
MTRNYC
METAR KNYC 282251Z AUTO 30011G17KT 10SM BKN050 OVC080 02/M09 A2997
RMK AO2 SLP141 T00221094 $





000
SAUS41 KOKX 282256 COR
MTRNYC
METAR KNYC 282251Z AUTO 30011G17KT 10SM BKN050 OVC080 02/M09 A2997
RMK AO2 SLP141 T00221094 $





000
SAUS41 KOKX 282255
MTRMTP
METAR KMTP 282254Z AUTO 30006KT 01/00 A2989 RMK AO1 SLP122 P0003
T00110000





000
SAUS41 KOKX 282255
MTRMTP
METAR KMTP 282254Z AUTO 30006KT 01/00 A2989 RMK AO1 SLP122 P0003
T00110000





000
SAUS41 KOKX 282155
MTRMTP
METAR KMTP 282154Z AUTO 30007KT 01/00 A2985 RMK AO1 SLP108 P0004
T00110000





000
SAUS41 KOKX 282152
MTRNYC
METAR KNYC 282151Z AUTO 01007KT 340V050 10SM BKN050 OVC060 03/M05
A2992 RMK AO2 SLP124 T00281050 $





000
SAUS41 KOKX 282152
MTRNYC
METAR KNYC 282151Z AUTO 01007KT 340V050 10SM BKN050 OVC060 03/M05
A2992 RMK AO2 SLP124 T00281050 $





000
SAUS41 KOKX 282055
MTRMTP
METAR KMTP 282054Z AUTO 31006KT 02/01 A2981 RMK AO1 SLP095 60003
T00170006 53021





000
SAUS41 KOKX 282052
MTRNYC
METAR KNYC 282051Z AUTO 00000KT 10SM OVC050 04/M06 A2989 RMK AO2
SLP112 T00391056 53008 $





000
SAUS41 KOKX 282052
MTRNYC
METAR KNYC 282051Z AUTO 00000KT 10SM OVC050 04/M06 A2989 RMK AO2
SLP112 T00391056 53008 $





000
SAUS41 KOKX 281955
MTRMTP
METAR KMTP 281954Z AUTO 31006KT 02/01 A2978 RMK AO1 SLP085 P0001
T00220011





000
SAUS41 KOKX 281952
MTRNYC
METAR KNYC 281951Z AUTO 05008G16KT 10SM SCT047 OVC075 04/M06 A2986
RMK AO2 SLP103 T00391056 $





000
SAUS41 KOKX 281855
MTRMTP
METAR KMTP 281854Z AUTO 32008KT 02/01 A2976 RMK AO1 SLP078 P0002
T00220011





000
SAUS41 KOKX 281855
MTRMTP
METAR KMTP 281854Z AUTO 32008KT 02/01 A2976 RMK AO1 SLP078 P0002
T00220011





000
SAUS41 KOKX 281852
MTRNYC
METAR KNYC 281851Z AUTO VRB05KT 10SM OVC070 03/M06 A2986 RMK AO2
SLP102 T00331061 $





000
SAUS41 KOKX 281852
MTRNYC
METAR KNYC 281851Z AUTO VRB05KT 10SM OVC070 03/M06 A2986 RMK AO2
SLP102 T00331061 $





000
SAUS41 KOKX 281755
MTRMTP
METAR KMTP 281754Z AUTO 34008KT 03/01 A2975 RMK AO1 SLP074 P0003
60018 T00280011 10028 20017 53002





000
SAUS41 KOKX 281755
MTRMTP
METAR KMTP 281754Z AUTO 34008KT 03/01 A2975 RMK AO1 SLP074 P0003
60018 T00280011 10028 20017 53002





000
SAUS41 KOKX 281753
MTRNYC
METAR KNYC 281751Z AUTO 05006KT 10SM OVC065 03/M05 A2986 RMK AO2
SLP103 60000 T00281050 10028 20006 50003 $





000
SAUS41 KOKX 281753
MTRNYC
METAR KNYC 281751Z AUTO 05006KT 10SM OVC065 03/M05 A2986 RMK AO2
SLP103 60000 T00281050 10028 20006 50003 $





000
SAUS41 KOKX 281655
MTRMTP
METAR KMTP 281654Z AUTO 34007KT 02/01 A2974 RMK AO1 SLP072 P0002
T00220011





000
SAUS41 KOKX 281655
MTRMTP
METAR KMTP 281654Z AUTO 34007KT 02/01 A2974 RMK AO1 SLP072 P0002
T00220011





000
SAUS41 KOKX 281653
MTRNYC
METAR KNYC 281651Z AUTO VRB06KT 10SM SCT044 OVC055 01/M06 A2986 RMK
AO2 SNE41 SLP104 P0000 T00111056 $





000
SAUS41 KOKX 281653
MTRNYC
METAR KNYC 281651Z AUTO VRB06KT 10SM SCT044 OVC055 01/M06 A2986 RMK
AO2 SNE41 SLP104 P0000 T00111056 $





000
SAUS41 KOKX 281618
MTRNYC
SPECI KNYC 281616Z AUTO VRB06KT 4SM -SN SCT041 OVC055 01/M06 A2985
RMK AO2 P0000 T00111061 $





000
SAUS41 KOKX 281604
MTRNYC
SPECI KNYC 281603Z AUTO 35011G18KT 2SM -SN SCT039 OVC050 01/M06
A2985 RMK AO2 P0000 T00061061 $





000
SAUS41 KOKX 281604
MTRNYC
SPECI KNYC 281603Z AUTO 35011G18KT 2SM -SN SCT039 OVC050 01/M06
A2985 RMK AO2 P0000 T00061061 $





000
SAUS41 KOKX 281555
MTRMTP
METAR KMTP 281554Z AUTO 34009KT 02/01 A2975 RMK AO1 SLP072 P0002
T00220006





000
SAUS41 KOKX 281552
MTRNYC
METAR KNYC 281551Z AUTO 5SM -SN OVC049 01/M07 A2986 RMK AO2 SNB48
SLP102 P0000 T00111067 $





000
SAUS41 KOKX 281455
MTRMTP
METAR KMTP 281454Z AUTO 33008KT 02/01 A2974 RMK AO1 SLP072 P0004
60011 T00170006 51013





000
SAUS41 KOKX 281455
MTRMTP
METAR KMTP 281454Z AUTO 33008KT 02/01 A2974 RMK AO1 SLP072 P0004
60011 T00170006 51013





000
SAUS41 KOKX 281452
MTRNYC
METAR KNYC 281451Z AUTO VRB06KT 10SM OVC049 01/M08 A2985 RMK AO2
SLP101 T00111078 53011 $





000
SAUS41 KOKX 281355
MTRMTP
METAR KMTP 281354Z AUTO 33009KT 02/01 A2974 RMK AO1 SLP072 P0004
T00170006





000
SAUS41 KOKX 281355
MTRMTP
METAR KMTP 281354Z AUTO 33009KT 02/01 A2974 RMK AO1 SLP072 P0004
T00170006





000
SAUS41 KOKX 281352
MTRNYC
METAR KNYC 281351Z AUTO 30007KT 10SM OVC047 01/M08 A2984 RMK AO2
SLP096 T00111078 $





000
SAUS41 KOKX 281352
MTRNYC
METAR KNYC 281351Z AUTO 30007KT 10SM OVC047 01/M08 A2984 RMK AO2
SLP096 T00111078 $





000
SAUS41 KOKX 281255
MTRMTP
METAR KMTP 281254Z AUTO 34007KT 02/01 A2973 RMK AO1 SLP066 P0003
T00220006





000
SAUS41 KOKX 281255
MTRMTP
METAR KMTP 281254Z AUTO 34007KT 02/01 A2973 RMK AO1 SLP066 P0003
T00220006





000
SAUS41 KOKX 281252
MTRNYC
METAR KNYC 281251Z AUTO VRB06KT 10SM OVC055 01/M08 A2983 RMK AO2
SLP092 T00061083 $





000
SAUS41 KOKX 281252
MTRNYC
METAR KNYC 281251Z AUTO VRB06KT 10SM OVC055 01/M08 A2983 RMK AO2
SLP092 T00061083 $





000
SAUS41 KOKX 281155
MTRMTP
METAR KMTP 281154Z AUTO 34008KT 02/01 A2971 RMK AO1 SLP059 P0002
60013 70016 T00220006 10039 20022 56001





000
SAUS41 KOKX 281155
MTRMTP
METAR KMTP 281154Z AUTO 34008KT 02/01 A2971 RMK AO1 SLP059 P0002
60013 70016 T00220006 10039 20022 56001





000
SAUS41 KOKX 281152
MTRNYC
METAR KNYC 281151Z AUTO 31009G15KT 10SM BKN047 OVC055 01/M08 A2982
RMK AO2 SLP090 T00111078 10039 20011 53013 $





000
SAUS41 KOKX 281152
MTRNYC
METAR KNYC 281151Z AUTO 31009G15KT 10SM BKN047 OVC055 01/M08 A2982
RMK AO2 SLP090 T00111078 10039 20011 53013 $





000
SAUS41 KOKX 281055
MTRMTP
METAR KMTP 281054Z AUTO 33007KT 02/01 A2971 RMK AO1 SLP061 T00220006





000
SAUS41 KOKX 281055
MTRMTP
METAR KMTP 281054Z AUTO 33007KT 02/01 A2971 RMK AO1 SLP061 T00220006





000
SAUS41 KOKX 281052
MTRNYC
METAR KNYC 281051Z AUTO 30006KT 10SM OVC050 02/M07 A2980 RMK AO2
SLP083 T00171072 $





000
SAUS41 KOKX 281052
MTRNYC
METAR KNYC 281051Z AUTO 30006KT 10SM OVC050 02/M07 A2980 RMK AO2
SLP083 T00171072 $





000
SAUS41 KOKX 280955
MTRMTP
METAR KMTP 280954Z AUTO 36004KT 03/01 A2970 RMK AO1 SLP056 P0005
T00280011





000
SAUS41 KOKX 280952
MTRNYC
METAR KNYC 280951Z AUTO 36008KT 330V040 10SM OVC065 02/M07 A2978 RMK
AO2 SLP076 T00221067 $





000
SAUS41 KOKX 280855
MTRMTP
METAR KMTP 280854Z AUTO 00000KT 03/02 A2971 RMK AO1 SLP061 P0003
60006 T00330017 55012





000
SAUS41 KOKX 280853
MTRNYC
METAR KNYC 280851Z AUTO 34008KT 320V020 10SM BKN060 02/M07 A2978 RMK
AO2 SLP077 T00221067 55007 $





000
SAUS41 KOKX 280853
MTRNYC
METAR KNYC 280851Z AUTO 34008KT 320V020 10SM BKN060 02/M07 A2978 RMK
AO2 SLP077 T00221067 55007 $





000
SAUS41 KOKX 280755
MTRMTP
METAR KMTP 280754Z AUTO 36006KT 03/01 A2970 RMK AO1 SLP058 P0002
T00330011





000
SAUS41 KOKX 280755
MTRMTP
METAR KMTP 280754Z AUTO 36006KT 03/01 A2970 RMK AO1 SLP058 P0002
T00330011





000
SAUS41 KOKX 280753
MTRNYC
METAR KNYC 280751Z AUTO VRB05G16KT 10SM SCT060 OVC110 03/M06 A2978
RMK AO2 SLP076 T00281056 $





000
SAUS41 KOKX 280655
MTRMTP
METAR KMTP 280654Z AUTO 00000KT 03/01 A2972 RMK AO1 SLP063 P0001
T00330011





000
SAUS41 KOKX 280652
MTRNYC
METAR KNYC 280651Z AUTO 35011G19KT 320V020 10SM OVC060 03/M05 A2979
RMK AO2 SLP079 T00331050 $





000
SAUS41 KOKX 280555
MTRMTP
METAR KMTP 280554Z AUTO 31006KT 04/01 A2975 RMK AO1 SLP072 T00390011
10050 20039 58009





000
SAUS41 KOKX 280555
MTRMTP
METAR KMTP 280554Z AUTO 31006KT 04/01 A2975 RMK AO1 SLP072 T00390011
10050 20039 58009





000
SAUS41 KOKX 280553
MTRNYC
METAR KNYC 280551Z AUTO 34007KT 310V050 10SM OVC060 04/M04 A2981 RMK
AO2 SLP085 T00391044 10067 20039 55003 $





000
SAUS41 KOKX 280553
MTRNYC
METAR KNYC 280551Z AUTO 34007KT 310V050 10SM OVC060 04/M04 A2981 RMK
AO2 SLP085 T00391044 10067 20039 55003 $





000
SAUS41 KOKX 280455
MTRMTP
METAR KMTP 280454Z AUTO 31003KT 04/01 A2976 RMK AO1 SLP076 T00390011
400780039





000
SAUS41 KOKX 280455
MTRMTP
METAR KMTP 280454Z AUTO 31003KT 04/01 A2976 RMK AO1 SLP076 T00390011
400780039





000
SAUS41 KOKX 280452
MTRNYC
METAR KNYC 280451Z AUTO 34007KT 10SM BKN060 04/M04 A2980 RMK AO2
SLP082 T00441044 400780039 $





000
SAUS41 KOKX 280355
MTRMTP
METAR KMTP 280354Z AUTO 30005KT 04/02 A2976 RMK AO1 SLP078 T00440017





000
SAUS41 KOKX 280353
MTRNYC
METAR KNYC 280351Z AUTO VRB04KT 10SM OVC060 05/M04 A2982 RMK AO2
SLP088 T00501039 $





000
SAUS41 KOKX 280353
MTRNYC
METAR KNYC 280351Z AUTO VRB04KT 10SM OVC060 05/M04 A2982 RMK AO2
SLP088 T00501039 $





000
SAUS41 KOKX 280255
MTRMTP
METAR KMTP 280254Z AUTO 00000KT 04/03 A2977 RMK AO1 SLP081 T00440028
50009





000
SAUS41 KOKX 280253
MTRNYC
METAR KNYC 280251Z AUTO VRB04KT 10SM OVC055 06/M04 A2981 RMK AO2
SLP087 T00561044 51012 $





000
SAUS41 KOKX 280253
MTRNYC
METAR KNYC 280251Z AUTO VRB04KT 10SM OVC055 06/M04 A2981 RMK AO2
SLP087 T00561044 51012 $





000
SAUS41 KOKX 280155
MTRMTP
METAR KMTP 280154Z AUTO 00000KT 05/03 A2977 RMK AO1 SLP082 T00500028





000
SAUS41 KOKX 280153
MTRNYC
METAR KNYC 280151Z AUTO VRB04KT 10SM OVC050 06/M04 A2980 RMK AO2
SLP084 T00611044 $





000
SAUS41 KOKX 280058
MTRMTP
METAR KMTP 280054Z AUTO 00000KT 04/03 A2977 RMK AO1 SLP081 T00440028





000
SAUS41 KOKX 280052
MTRNYC
METAR KNYC 280051Z AUTO VRB04KT 10SM OVC055 06/M04 A2980 RMK AO2
SLP082 T00611039 $





000
SAUS41 KOKX 272355
MTRMTP
METAR KMTP 272354Z AUTO 00000KT 05/04 A2975 RMK AO1 SLP073 T00500039
10056 20044 53010





000
SAUS41 KOKX 272355
MTRMTP
METAR KMTP 272354Z AUTO 00000KT 05/04 A2975 RMK AO1 SLP073 T00500039
10056 20044 53010





000
SAUS41 KOKX 272353
MTRNYC
METAR KNYC 272351Z AUTO VRB03KT 10SM OVC050 07/M03 A2978 RMK AO2
SLP075 T00671033 10078 20067 53011 $





000
SAUS41 KOKX 272255
MTRMTP
METAR KMTP 272254Z AUTO 00000KT 05/03 A2970 RMK AO1 PRESFR SLP057
T00500028





000
SAUS41 KOKX 272255
MTRMTP
METAR KMTP 272254Z AUTO 00000KT 05/03 A2970 RMK AO1 PRESFR SLP057
T00500028





000
SAUS41 KOKX 272253
MTRNYC
METAR KNYC 272251Z AUTO VRB04KT 10SM OVC044 07/M02 A2976 RMK AO2
SLP070 T00671022 $





000
SAUS41 KOKX 272253
MTRNYC
METAR KNYC 272251Z AUTO VRB04KT 10SM OVC044 07/M02 A2976 RMK AO2
SLP070 T00671022 $





000
SAUS41 KOKX 272155
MTRMTP
METAR KMTP 272154Z AUTO 27003KT 05/03 A2975 RMK AO1 PRESRR SLP075
T00500028





000
SAUS41 KOKX 272152
MTRNYC
METAR KNYC 272151Z AUTO VRB05KT 10SM OVC040 07/M02 A2975 RMK AO2
SLP065 T00721022 $





000
SAUS41 KOKX 272055
MTRMTP
METAR KMTP 272054Z AUTO 31003KT 05/03 A2972 RMK AO1 SLP063 T00500033
53004





000
SAUS41 KOKX 272052
MTRNYC
METAR KNYC 272051Z AUTO 00000KT 10SM OVC039 07/M02 A2974 RMK AO2
SLP064 T00721017 55004 $





000
SAUS41 KOKX 272052
MTRNYC
METAR KNYC 272051Z AUTO 00000KT 10SM OVC039 07/M02 A2974 RMK AO2
SLP064 T00721017 55004 $





000
SAUS41 KOKX 271957 COR
MTRMTP
METAR KMTP 271954Z AUTO 33005KT 05/03 A2971 RMK AO1 SLP060 T00500028





000
SAUS41 KOKX 271956 COR
MTRMTP
METAR KMTP 271954Z AUTO 33005KT 05/03 A2971 RMK AO1 SLP060 T00500028





000
SAUS41 KOKX 271956 COR
MTRMTP
METAR KMTP 271954Z AUTO 33005KT 05/03 A2971 RMK AO1 SLP060 T00500028





000
SAUS41 KOKX 271952
MTRNYC
METAR KNYC 271951Z AUTO 01008KT 10SM OVC032 07/M01 A2973 RMK AO2
PRESFR SLP060 T00721006 $





000
SAUS41 KOKX 271952
MTRNYC
METAR KNYC 271951Z AUTO 01008KT 10SM OVC032 07/M01 A2973 RMK AO2
PRESFR SLP060 T00721006 $





000
SAUS41 KOKX 271855
MTRMTP
METAR KMTP 271854Z AUTO 34004KT 05/03 A2971 RMK AO1 SLP059 T00500028





000
SAUS41 KOKX 271855
MTRMTP
METAR KMTP 271854Z AUTO 34004KT 05/03 A2971 RMK AO1 SLP059 T00500028





000
SAUS41 KOKX 271852
MTRNYC
METAR KNYC 271851Z AUTO VRB05KT 10SM OVC032 07/00 A2975 RMK AO2
SLP066 T00670000 $





000
SAUS41 KOKX 271852
MTRNYC
METAR KNYC 271851Z AUTO VRB05KT 10SM OVC032 07/00 A2975 RMK AO2
SLP066 T00670000 $





000
SAUS41 KOKX 271813
MTRNYC
SPECI KNYC 271811Z AUTO 00000KT 10SM OVC032 07/00 A2975 RMK AO2
T00670000 $





000
SAUS41 KOKX 271813
MTRNYC
SPECI KNYC 271811Z AUTO 00000KT 10SM OVC032 07/00 A2975 RMK AO2
T00670000 $





000
SAUS41 KOKX 271759
MTRNYC
SPECI KNYC 271758Z AUTO 00000KT 10SM BKN029 OVC043 07/01 A2976 RMK
AO2 T00670006 $





000
SAUS41 KOKX 271759
MTRNYC
SPECI KNYC 271758Z AUTO 00000KT 10SM BKN029 OVC043 07/01 A2976 RMK
AO2 T00670006 $





000
SAUS41 KOKX 271755
MTRMTP
METAR KMTP 271754Z AUTO 33005KT 05/03 A2971 RMK AO1 SLP059 60003
T00500028 10056 20039 56007





000
SAUS41 KOKX 271755
MTRMTP
METAR KMTP 271754Z AUTO 33005KT 05/03 A2971 RMK AO1 SLP059 60003
T00500028 10056 20039 56007





000
SAUS41 KOKX 271752
MTRNYC
METAR KNYC 271751Z AUTO 00000KT 10SM SCT029 OVC043 07/01 A2976 RMK
AO2 SLP068 T00670006 10072 20039 56007 $





000
SAUS41 KOKX 271752
MTRNYC
METAR KNYC 271751Z AUTO 00000KT 10SM SCT029 OVC043 07/01 A2976 RMK
AO2 SLP068 T00670006 10072 20039 56007 $





000
SAUS41 KOKX 271745
MTRNYC
SPECI KNYC 271743Z AUTO VRB03KT 10SM SCT029 OVC043 07/01 A2976 RMK
AO2 T00720011 $





000
SAUS41 KOKX 271745
MTRNYC
SPECI KNYC 271743Z AUTO VRB03KT 10SM SCT029 OVC043 07/01 A2976 RMK
AO2 T00720011 $





000
SAUS41 KOKX 271735
MTRNYC
SPECI KNYC 271733Z AUTO 36004KT 10SM FEW024 BKN029 OVC043 07/01
A2976 RMK AO2 T00670011 $





000
SAUS41 KOKX 271735
MTRNYC
SPECI KNYC 271733Z AUTO 36004KT 10SM FEW024 BKN029 OVC043 07/01
A2976 RMK AO2 T00670011 $





000
SAUS41 KOKX 271656
MTRMTP
METAR KMTP 271654Z AUTO 31006KT 05/03 A2971 RMK AO1 SLP062 T00500033





000
SAUS41 KOKX 271656
MTRMTP
METAR KMTP 271654Z AUTO 31006KT 05/03 A2971 RMK AO1 SLP062 T00500033





000
SAUS41 KOKX 271653
MTRNYC
METAR KNYC 271651Z AUTO VRB05KT 10SM FEW023 OVC037 07/02 A2976 RMK
AO2 SLP068 T00670017 $





000
SAUS41 KOKX 271653
MTRNYC
METAR KNYC 271651Z AUTO VRB05KT 10SM FEW023 OVC037 07/02 A2976 RMK
AO2 SLP068 T00670017 $





000
SAUS41 KOKX 271638
MTRNYC
SPECI KNYC 271636Z AUTO VRB04KT 10SM FEW023 OVC037 07/02 A2975 RMK
AO2 T00670017 $





000
SAUS41 KOKX 271638
MTRNYC
SPECI KNYC 271636Z AUTO VRB04KT 10SM FEW023 OVC037 07/02 A2975 RMK
AO2 T00670017 $





000
SAUS41 KOKX 271621
MTRNYC
SPECI KNYC 271619Z AUTO 00000KT 10SM SCT019 BKN025 OVC037 06/01
A2976 RMK AO2 T00610011 $





000
SAUS41 KOKX 271621
MTRNYC
SPECI KNYC 271619Z AUTO 00000KT 10SM SCT019 BKN025 OVC037 06/01
A2976 RMK AO2 T00610011 $





000
SAUS41 KOKX 271555
MTRMTP
METAR KMTP 271554Z AUTO 34005KT 05/03 A2970 RMK AO1 SLP058 T00500033





000
SAUS41 KOKX 271552
MTRNYC
METAR KNYC 271551Z AUTO 00000KT 10SM FEW018 OVC034 06/02 A2977 RMK
AO2 SLP072 T00560017 $





000
SAUS41 KOKX 271455
MTRMTP
METAR KMTP 271454Z AUTO 35005KT 05/03 A2973 RMK AO1 SLP066 60003
T00500033 56002





000
SAUS41 KOKX 271452
MTRNYC
METAR KNYC 271451Z AUTO VRB05KT 10SM SCT014 BKN080 OVC095 05/02
A2978 RMK AO2 SLP075 T00500017 50001 $





000
SAUS41 KOKX 271419
MTRNYC
SPECI KNYC 271418Z AUTO 36007KT 330V040 10SM FEW014 SCT023 OVC090
05/02 A2977 RMK AO2 T00500017 $





000
SAUS41 KOKX 271419
MTRNYC
SPECI KNYC 271418Z AUTO 36007KT 330V040 10SM FEW014 SCT023 OVC090
05/02 A2977 RMK AO2 T00500017 $





000
SAUS41 KOKX 271355
MTRMTP
METAR KMTP 271354Z AUTO 34006KT 04/03 A2973 RMK AO1 SLP068 P0002
T00440033





000
SAUS41 KOKX 271355
MTRMTP
METAR KMTP 271354Z AUTO 34006KT 04/03 A2973 RMK AO1 SLP068 P0002
T00440033





000
SAUS41 KOKX 271353
MTRNYC
METAR KNYC 271351Z 01004KT 10SM FEW011 BKN023 OVC028 04/02 A2978 RMK
AO2 SLP077 T00440022 $





000
SAUS41 KOKX 271344
MTRNYC
SPECI KNYC 271343Z VRB04KT 10SM FEW011 BKN021 OVC027 04/02 A2978 RMK
AO2 T00440022 $





000
SAUS41 KOKX 271255
MTRMTP
METAR KMTP 271254Z AUTO 34006KT 04/03 A2972 RMK AO1 SLP064 P0001
T00390033





000
SAUS41 KOKX 271253
MTRNYC
METAR KNYC 271251Z 00000KT 10SM OVC011 04/02 A2977 RMK AO2 SLP073
T00390022 $





000
SAUS41 KOKX 271214
MTRNYC
SPECI KNYC 271213Z VRB03KT 10SM BKN010 BKN050 OVC075 04/02 A2977 RMK
AO2 T00390022 $





000
SAUS41 KOKX 271155
MTRMTP
METAR KMTP 271154Z AUTO 33007KT 04/03 A2973 RMK AO1 SLP068 60016
70043 T00440033 10067 20039 51029





000
SAUS41 KOKX 271155
MTRMTP
METAR KMTP 271154Z AUTO 33007KT 04/03 A2973 RMK AO1 SLP068 60016
70043 T00440033 10067 20039 51029





000
SAUS41 KOKX 271153
MTRNYC
METAR KNYC 271151Z VRB03KT 10SM FEW012 BKN046 OVC075 04/02 A2977 RMK
AO2 RAE49 SLP074 P0002 60027 70059 T00390022 10061 20039 50005 $





000
SAUS41 KOKX 271153
MTRNYC
METAR KNYC 271151Z VRB03KT 10SM FEW012 BKN046 OVC075 04/02 A2977 RMK
AO2 RAE49 SLP074 P0002 60027 70059 T00390022 10061 20039 50005 $





000
SAUS41 KOKX 271101
MTRNYC
SPECI KNYC 271101Z VRB03KT 10SM -RA SCT013 OVC032 04/02 A2979 RMK
AO2 P0000 T00390022 $





000
SAUS41 KOKX 271101
MTRNYC
SPECI KNYC 271101Z VRB03KT 10SM -RA SCT013 OVC032 04/02 A2979 RMK
AO2 P0000 T00390022 $





000
SAUS41 KOKX 271055
MTRMTP
METAR KMTP 271054Z AUTO 32006KT 04/03 A2971 RMK AO1 SLP060 P0001
T00390028





000
SAUS41 KOKX 271055
MTRMTP
METAR KMTP 271054Z AUTO 32006KT 04/03 A2971 RMK AO1 SLP060 P0001
T00390028





000
SAUS41 KOKX 271052
MTRNYC
METAR KNYC 271051Z 30004KT 8SM -RA BKN013 OVC036 04/02 A2979 RMK AO2
SLP079 P0006 T00390022 $





000
SAUS41 KOKX 271052
MTRNYC
METAR KNYC 271051Z 30004KT 8SM -RA BKN013 OVC036 04/02 A2979 RMK AO2
SLP079 P0006 T00390022 $





000
SAUS41 KOKX 271031
MTRNYC
SPECI KNYC 271030Z VRB04KT 10SM -RA OVC013 04/02 A2978 RMK AO2 P0005
T00390022 $





000
SAUS41 KOKX 271023 COR
MTRNYC
SPECI KNYC 271019Z VRB04KT 8SM -RA OVC015 04/02 A2978 RMK AO2 P0005
T00390017 $





000
SAUS41 KOKX 271023 COR
MTRNYC
SPECI KNYC 271019Z VRB04KT 8SM -RA OVC015 04/02 A2978 RMK AO2 P0005
T00390017 $





000
SAUS41 KOKX 271022 COR
MTRNYC
SPECI KNYC 271019Z VRB04KT 8SM -RA OVC015 04/02 A2978 RMK AO2 P0005
T00390017 $





000
SAUS41 KOKX 271000
MTRNYC
SPECI KNYC 270959Z 32004KT 5SM -RA BR OVC014 04/02 A2978 RMK AO2
P0001 T00390022 $





000
SAUS41 KOKX 270955
MTRMTP
METAR KMTP 270954Z AUTO 30006KT 04/03 A2968 RMK AO1 SLP052 P0004
T00440033





000
SAUS41 KOKX 270953
MTRNYC
METAR KNYC 270951Z VRB04G15KT 5SM -RA BR BKN016 OVC021 04/02 A2979
RMK AO2 SLP078 P0007 T00390017 $





000
SAUS41 KOKX 270927
MTRNYC
SPECI KNYC 270926Z 30005KT 6SM -RA BR FEW008 BKN014 OVC029 05/03
A2976 RMK AO2 P0005 T00500033 $





000
SAUS41 KOKX 270927
MTRNYC
SPECI KNYC 270926Z 30005KT 6SM -RA BR FEW008 BKN014 OVC029 05/03
A2976 RMK AO2 P0005 T00500033 $





000
SAUS41 KOKX 270855
MTRMTP
METAR KMTP 270854Z AUTO 32007KT 04/03 A2965 RMK AO1 SLP038 P0005
60011 T00440033 50008





000
SAUS41 KOKX 270853
MTRNYC
METAR KNYC 270851Z VRB03KT 5SM -RA BR BKN010 OVC015 06/04 A2976 RMK
AO2 CIG 009V012 SLP069 P0007 60012 T00560039 53010 $





000
SAUS41 KOKX 270836
MTRNYC
SPECI KNYC 270834Z 35005KT 10SM -RA BKN011 OVC018 06/04 A2975 RMK
AO2 P0005 T00560039 $





000
SAUS41 KOKX 270836
MTRNYC
SPECI KNYC 270834Z 35005KT 10SM -RA BKN011 OVC018 06/04 A2975 RMK
AO2 P0005 T00560039 $





000
SAUS41 KOKX 270755
MTRMTP
METAR KMTP 270754Z AUTO 32007KT 06/04 A2966 RMK AO1 SLP043 P0005
T00560039





000
SAUS41 KOKX 270752
MTRNYC
METAR KNYC 270751Z VRB05KT 6SM -RA BR SCT012 OVC018 06/04 A2975 RMK
AO2 RAB02 SLP065 P0004 T00560044 $





000
SAUS41 KOKX 270752
MTRNYC
METAR KNYC 270751Z VRB05KT 6SM -RA BR SCT012 OVC018 06/04 A2975 RMK
AO2 RAB02 SLP065 P0004 T00560044 $





000
SAUS41 KOKX 270737
MTRNYC
SPECI KNYC 270736Z 32005KT 5SM RA BR OVC013 06/04 A2975 RMK AO2
RAB02 PRESRR P0002 T00610039 $





000
SAUS41 KOKX 270737
MTRNYC
SPECI KNYC 270736Z 32005KT 5SM RA BR OVC013 06/04 A2975 RMK AO2
RAB02 PRESRR P0002 T00610039 $





000
SAUS41 KOKX 270655
MTRMTP
METAR KMTP 270654Z AUTO 00000KT 06/06 A2965 RMK AO1 SLP039 P0001
T00610056





000
SAUS41 KOKX 270655
MTRMTP
METAR KMTP 270654Z AUTO 00000KT 06/06 A2965 RMK AO1 SLP039 P0001
T00610056





000
SAUS41 KOKX 270652
MTRNYC
METAR KNYC 270651Z VRB04KT 10SM BKN018 OVC080 06/04 A2972 RMK AO2
RAE45 SLP056 P0001 T00610039 $





000
SAUS41 KOKX 270652
MTRNYC
METAR KNYC 270651Z VRB04KT 10SM BKN018 OVC080 06/04 A2972 RMK AO2
RAE45 SLP056 P0001 T00610039 $





000
SAUS41 KOKX 270555
MTRMTP
METAR KMTP 270554Z AUTO 02005KT 07/06 A2962 RMK AO1 SLP030 60010
T00670056 10139 20067 50000





000
SAUS41 KOKX 270555
MTRMTP
METAR KMTP 270554Z AUTO 02005KT 07/06 A2962 RMK AO1 SLP030 60010
T00670056 10139 20067 50000





000
SAUS41 KOKX 270552
MTRNYC
METAR KNYC 270551Z VRB05KT 10SM -RA OVC090 06/03 A2973 RMK AO2
RAE00B50 SLP058 P0000 60027 T00610033 10167 20061 51019 $





000
SAUS41 KOKX 270552
MTRNYC
METAR KNYC 270551Z VRB05KT 10SM -RA OVC090 06/03 A2973 RMK AO2
RAE00B50 SLP058 P0000 60027 T00610033 10167 20061 51019 $





000
SAUS41 KOKX 270514
MTRNYC
SPECI KNYC 270513Z VRB06KT 10SM SCT012 OVC080 06/04 A2970 RMK AO2
RAE00 P0000 T00610039 $





000
SAUS41 KOKX 270514
MTRNYC
SPECI KNYC 270513Z VRB06KT 10SM SCT012 OVC080 06/04 A2970 RMK AO2
RAE00 P0000 T00610039 $





000
SAUS41 KOKX 270455
MTRMTP
METAR KMTP 270454Z AUTO 36004KT 07/06 A2962 RMK AO1 SLP031 T00670061
401390061





000
SAUS41 KOKX 270455
MTRMTP
METAR KMTP 270454Z AUTO 36004KT 07/06 A2962 RMK AO1 SLP031 T00670061
401390061





000
SAUS41 KOKX 270453
MTRNYC
METAR KNYC 270451Z AUTO VRB05KT 7SM -RA BKN010 OVC085 06/04 A2970
RMK AO2 RAB0358 CIG 008V014 SLP049 P0003 T00610044 401670056 $





000
SAUS41 KOKX 270451
MTRNYC
SPECI KNYC 270449Z AUTO 35005KT 6SM -RA BR BKN010 OVC085 06/04 A2970
RMK AO2 RAB0358 CIG 008V014 P0003 $





    US Dept of Commerce
    National Oceanic and Atmospheric Administration
    National Weather Service
    1325 East West Highway
    Silver Spring, MD 20910
    Page Author: NWS Internet Services Team
Disclaimer
Information Quality
Credits
Glossary
Privacy Policy
Freedom of Information Act (FOIA)
About Us
Career Opportunities